sensor_id;sensor_type;location;lat;lon;timestamp;P1;durP1;ratioP1;P2;durP2;ratioP2
8871;SDS011;4472;52.092;9.820;2023-05-10T00:01:29;3.80;;;3.27;;
8871;SDS011;4472;52.092;9.820;2023-05-10T00:04:16;3.93;;;3.10;;
8871;SDS011;4472;52.092;9.820;2023-05-10T00:07:03;5.13;;;3.17;;
8871;SDS011;4472;52.092;9.820;2023-05-10T00:09:50;3.50;;;2.90;;
8871;SDS011;4472;52.092;9.820;2023-05-10T00:12:38;3.40;;;3.10;;
8871;SDS011;4472;52.092;9.820;2023-05-10T00:15:25;5.67;;;3.43;;
8871;SDS011;4472;52.092;9.820;2023-05-10T00:18:13;3.53;;;3.20;;
8871;SDS011;4472;52.092;9.820;2023-05-10T00:21:00;5.47;;;3.33;;
8871;SDS011;4472;52.092;9.820;2023-05-10T00:23:47;3.03;;;2.80;;
8871;SDS011;4472;52.092;9.820;2023-05-10T00:26:34;4.70;;;3.30;;
8871;SDS011;4472;52.092;9.820;2023-05-10T00:29:23;4.27;;;3.10;;
8871;SDS011;4472;52.092;9.820;2023-05-10T00:32:10;4.03;;;3.20;;
8871;SDS011;4472;52.092;9.820;2023-05-10T00:34:59;3.37;;;3.00;;
8871;SDS011;4472;52.092;9.820;2023-05-10T00:37:46;4.33;;;3.43;;
8871;SDS011;4472;52.092;9.820;2023-05-10T00:40:35;4.17;;;3.30;;
8871;SDS011;4472;52.092;9.820;2023-05-10T00:43:22;8.87;;;3.47;;
8871;SDS011;4472;52.092;9.820;2023-05-10T00:46:10;4.27;;;3.50;;
8871;SDS011;4472;52.092;9.820;2023-05-10T00:48:58;5.40;;;3.47;;
8871;SDS011;4472;52.092;9.820;2023-05-10T00:51:45;4.30;;;3.27;;
8871;SDS011;4472;52.092;9.820;2023-05-10T00:54:33;3.93;;;3.43;;
8871;SDS011;4472;52.092;9.820;2023-05-10T00:57:20;8.03;;;3.23;;
8871;SDS011;4472;52.092;9.820;2023-05-10T01:00:08;5.57;;;3.27;;
8871;SDS011;4472;52.092;9.820;2023-05-10T01:02:58;5.70;;;3.30;;
8871;SDS011;4472;52.092;9.820;2023-05-10T01:05:45;3.90;;;3.50;;
8871;SDS011;4472;52.092;9.820;2023-05-10T01:08:32;5.27;;;3.70;;
8871;SDS011;4472;52.092;9.820;2023-05-10T01:11:19;3.33;;;2.93;;
8871;SDS011;4472;52.092;9.820;2023-05-10T01:14:07;3.43;;;3.13;;
8871;SDS011;4472;52.092;9.820;2023-05-10T01:16:54;3.50;;;3.20;;
8871;SDS011;4472;52.092;9.820;2023-05-10T01:19:43;4.20;;;3.80;;
8871;SDS011;4472;52.092;9.820;2023-05-10T01:22:36;6.70;;;3.33;;
8871;SDS011;4472;52.092;9.820;2023-05-10T01:25:39;6.00;;;3.60;;
8871;SDS011;4472;52.092;9.820;2023-05-10T01:32:13;4.60;;;3.20;;
8871;SDS011;4472;52.092;9.820;2023-05-10T01:35:06;4.90;;;3.07;;
8871;SDS011;4472;52.092;9.820;2023-05-10T01:37:57;6.63;;;3.53;;
8871;SDS011;4472;52.092;9.820;2023-05-10T01:40:52;3.90;;;3.30;;
8871;SDS011;4472;52.092;9.820;2023-05-10T01:43:49;4.30;;;3.90;;
8871;SDS011;4472;52.092;9.820;2023-05-10T01:46:40;4.67;;;3.50;;
8871;SDS011;4472;52.092;9.820;2023-05-10T01:49:31;3.20;;;3.00;;
8871;SDS011;4472;52.092;9.820;2023-05-10T01:52:22;4.53;;;3.67;;
8871;SDS011;4472;52.092;9.820;2023-05-10T01:55:17;3.53;;;3.23;;
8871;SDS011;4472;52.092;9.820;2023-05-10T01:58:08;4.10;;;3.70;;
8871;SDS011;4472;52.092;9.820;2023-05-10T02:00:56;5.47;;;3.73;;
8871;SDS011;4472;52.092;9.820;2023-05-10T02:03:46;3.83;;;3.43;;
8871;SDS011;4472;52.092;9.820;2023-05-10T02:06:37;4.13;;;3.73;;
8871;SDS011;4472;52.092;9.820;2023-05-10T02:09:25;4.33;;;3.70;;
8871;SDS011;4472;52.092;9.820;2023-05-10T02:12:15;5.57;;;3.40;;
8871;SDS011;4472;52.092;9.820;2023-05-10T02:15:04;4.00;;;3.20;;
8871;SDS011;4472;52.092;9.820;2023-05-10T02:17:52;6.13;;;3.70;;
8871;SDS011;4472;52.092;9.820;2023-05-10T02:20:42;4.13;;;3.40;;
8871;SDS011;4472;52.092;9.820;2023-05-10T02:23:32;3.97;;;3.47;;
8871;SDS011;4472;52.092;9.820;2023-05-10T02:26:21;3.83;;;3.33;;
8871;SDS011;4472;52.092;9.820;2023-05-10T02:29:11;4.77;;;3.57;;
8871;SDS011;4472;52.092;9.820;2023-05-10T02:32:00;3.93;;;3.63;;
8871;SDS011;4472;52.092;9.820;2023-05-10T02:34:48;3.40;;;3.20;;
8871;SDS011;4472;52.092;9.820;2023-05-10T02:37:37;5.07;;;3.77;;
8871;SDS011;4472;52.092;9.820;2023-05-10T02:40:27;6.13;;;3.90;;
8871;SDS011;4472;52.092;9.820;2023-05-10T02:43:16;4.33;;;3.70;;
8871;SDS011;4472;52.092;9.820;2023-05-10T02:46:04;5.03;;;3.30;;
8871;SDS011;4472;52.092;9.820;2023-05-10T02:48:52;4.07;;;3.63;;
8871;SDS011;4472;52.092;9.820;2023-05-10T02:51:40;5.60;;;3.47;;
8871;SDS011;4472;52.092;9.820;2023-05-10T02:54:34;4.10;;;3.80;;
8871;SDS011;4472;52.092;9.820;2023-05-10T02:57:30;3.87;;;3.47;;
8871;SDS011;4472;52.092;9.820;2023-05-10T03:00:20;4.13;;;3.73;;
8871;SDS011;4472;52.092;9.820;2023-05-10T03:03:07;4.47;;;3.33;;
8871;SDS011;4472;52.092;9.820;2023-05-10T03:05:54;6.37;;;3.20;;
8871;SDS011;4472;52.092;9.820;2023-05-10T03:08:42;4.07;;;3.60;;
8871;SDS011;4472;52.092;9.820;2023-05-10T03:11:32;4.13;;;3.50;;
8871;SDS011;4472;52.092;9.820;2023-05-10T03:14:34;4.13;;;3.57;;
8871;SDS011;4472;52.092;9.820;2023-05-10T03:17:34;5.43;;;3.53;;
8871;SDS011;4472;52.092;9.820;2023-05-10T03:20:29;6.13;;;4.03;;
8871;SDS011;4472;52.092;9.820;2023-05-10T03:23:21;4.13;;;3.60;;
8871;SDS011;4472;52.092;9.820;2023-05-10T03:26:14;5.73;;;4.20;;
8871;SDS011;4472;52.092;9.820;2023-05-10T03:29:06;4.80;;;3.30;;
8871;SDS011;4472;52.092;9.820;2023-05-10T03:31:55;4.10;;;3.40;;
8871;SDS011;4472;52.092;9.820;2023-05-10T03:34:43;4.20;;;3.57;;
8871;SDS011;4472;52.092;9.820;2023-05-10T03:37:31;5.10;;;3.63;;
8871;SDS011;4472;52.092;9.820;2023-05-10T03:40:18;3.90;;;3.47;;
8871;SDS011;4472;52.092;9.820;2023-05-10T03:43:05;4.20;;;3.70;;
8871;SDS011;4472;52.092;9.820;2023-05-10T03:45:52;6.73;;;3.30;;
8871;SDS011;4472;52.092;9.820;2023-05-10T03:48:41;3.80;;;3.50;;
8871;SDS011;4472;52.092;9.820;2023-05-10T03:51:28;3.80;;;3.43;;
8871;SDS011;4472;52.092;9.820;2023-05-10T03:54:16;5.00;;;3.27;;
8871;SDS011;4472;52.092;9.820;2023-05-10T03:57:03;4.93;;;4.20;;
8871;SDS011;4472;52.092;9.820;2023-05-10T03:59:50;4.93;;;3.80;;
8871;SDS011;4472;52.092;9.820;2023-05-10T04:02:38;4.67;;;4.17;;
8871;SDS011;4472;52.092;9.820;2023-05-10T04:05:26;5.07;;;3.63;;
8871;SDS011;4472;52.092;9.820;2023-05-10T04:08:13;4.90;;;3.40;;
8871;SDS011;4472;52.092;9.820;2023-05-10T04:11:04;4.13;;;3.73;;
8871;SDS011;4472;52.092;9.820;2023-05-10T04:13:53;5.60;;;3.50;;
8871;SDS011;4472;52.092;9.820;2023-05-10T04:16:40;6.33;;;5.30;;
8871;SDS011;4472;52.092;9.820;2023-05-10T04:19:28;6.43;;;4.80;;
8871;SDS011;4472;52.092;9.820;2023-05-10T04:22:17;5.70;;;3.60;;
8871;SDS011;4472;52.092;9.820;2023-05-10T04:25:04;5.17;;;3.43;;
8871;SDS011;4472;52.092;9.820;2023-05-10T04:27:52;4.40;;;4.00;;
8871;SDS011;4472;52.092;9.820;2023-05-10T04:30:40;7.77;;;3.90;;
8871;SDS011;4472;52.092;9.820;2023-05-10T04:33:27;4.13;;;3.80;;
8871;SDS011;4472;52.092;9.820;2023-05-10T04:36:15;6.17;;;3.87;;
8871;SDS011;4472;52.092;9.820;2023-05-10T04:39:03;4.50;;;4.10;;
8871;SDS011;4472;52.092;9.820;2023-05-10T04:41:50;5.27;;;4.00;;
8871;SDS011;4472;52.092;9.820;2023-05-10T04:44:38;5.30;;;4.80;;
8871;SDS011;4472;52.092;9.820;2023-05-10T04:47:26;9.83;;;5.20;;
8871;SDS011;4472;52.092;9.820;2023-05-10T04:50:13;6.47;;;4.30;;
8871;SDS011;4472;52.092;9.820;2023-05-10T04:53:00;5.73;;;4.83;;
8871;SDS011;4472;52.092;9.820;2023-05-10T04:55:49;5.10;;;4.63;;
8871;SDS011;4472;52.092;9.820;2023-05-10T04:58:36;6.30;;;5.70;;
8871;SDS011;4472;52.092;9.820;2023-05-10T05:01:23;5.37;;;4.83;;
8871;SDS011;4472;52.092;9.820;2023-05-10T05:04:11;6.37;;;5.07;;
8871;SDS011;4472;52.092;9.820;2023-05-10T05:06:59;5.90;;;5.27;;
8871;SDS011;4472;52.092;9.820;2023-05-10T05:09:47;6.07;;;5.50;;
8871;SDS011;4472;52.092;9.820;2023-05-10T05:12:37;6.00;;;5.40;;
8871;SDS011;4472;52.092;9.820;2023-05-10T05:15:24;6.00;;;5.40;;
8871;SDS011;4472;52.092;9.820;2023-05-10T05:18:12;7.20;;;5.43;;
8871;SDS011;4472;52.092;9.820;2023-05-10T05:20:59;5.40;;;4.90;;
8871;SDS011;4472;52.092;9.820;2023-05-10T05:23:47;6.07;;;5.07;;
8871;SDS011;4472;52.092;9.820;2023-05-10T05:26:34;5.70;;;5.10;;
8871;SDS011;4472;52.092;9.820;2023-05-10T05:29:23;6.67;;;5.13;;
8871;SDS011;4472;52.092;9.820;2023-05-10T05:32:10;6.83;;;5.37;;
8871;SDS011;4472;52.092;9.820;2023-05-10T05:34:57;6.93;;;5.80;;
8871;SDS011;4472;52.092;9.820;2023-05-10T05:37:45;5.93;;;5.40;;
8871;SDS011;4472;52.092;9.820;2023-05-10T05:40:32;6.40;;;5.30;;
8871;SDS011;4472;52.092;9.820;2023-05-10T05:43:19;6.73;;;4.83;;
8871;SDS011;4472;52.092;9.820;2023-05-10T05:46:08;5.20;;;4.80;;
8871;SDS011;4472;52.092;9.820;2023-05-10T05:48:55;6.20;;;5.60;;
8871;SDS011;4472;52.092;9.820;2023-05-10T05:51:43;7.17;;;5.30;;
8871;SDS011;4472;52.092;9.820;2023-05-10T05:54:31;7.80;;;5.57;;
8871;SDS011;4472;52.092;9.820;2023-05-10T05:57:18;5.90;;;5.30;;
8871;SDS011;4472;52.092;9.820;2023-05-10T06:00:06;5.80;;;5.30;;
8871;SDS011;4472;52.092;9.820;2023-05-10T06:02:55;5.90;;;5.30;;
8871;SDS011;4472;52.092;9.820;2023-05-10T06:05:42;5.40;;;4.90;;
8871;SDS011;4472;52.092;9.820;2023-05-10T06:08:30;6.10;;;4.70;;
8871;SDS011;4472;52.092;9.820;2023-05-10T06:11:17;5.20;;;4.77;;
8871;SDS011;4472;52.092;9.820;2023-05-10T06:14:04;5.57;;;5.07;;
8871;SDS011;4472;52.092;9.820;2023-05-10T06:16:52;5.33;;;4.83;;
8871;SDS011;4472;52.092;9.820;2023-05-10T06:19:41;5.80;;;5.30;;
8871;SDS011;4472;52.092;9.820;2023-05-10T06:22:28;6.30;;;4.97;;
8871;SDS011;4472;52.092;9.820;2023-05-10T06:25:15;8.33;;;4.70;;
8871;SDS011;4472;52.092;9.820;2023-05-10T06:28:03;5.87;;;5.27;;
8871;SDS011;4472;52.092;9.820;2023-05-10T06:30:50;6.33;;;5.20;;
8871;SDS011;4472;52.092;9.820;2023-05-10T06:33:37;5.00;;;4.60;;
8871;SDS011;4472;52.092;9.820;2023-05-10T06:36:26;5.27;;;4.77;;
8871;SDS011;4472;52.092;9.820;2023-05-10T06:39:13;4.97;;;4.57;;
8871;SDS011;4472;52.092;9.820;2023-05-10T06:42:01;4.70;;;4.30;;
8871;SDS011;4472;52.092;9.820;2023-05-10T06:44:49;4.30;;;4.00;;
8871;SDS011;4472;52.092;9.820;2023-05-10T06:47:36;4.67;;;4.27;;
8871;SDS011;4472;52.092;9.820;2023-05-10T06:50:24;5.20;;;4.70;;
8871;SDS011;4472;52.092;9.820;2023-05-10T06:53:12;5.00;;;4.60;;
8871;SDS011;4472;52.092;9.820;2023-05-10T06:55:59;5.20;;;4.70;;
8871;SDS011;4472;52.092;9.820;2023-05-10T06:58:47;4.00;;;3.70;;
8871;SDS011;4472;52.092;9.820;2023-05-10T07:01:35;3.90;;;3.60;;
8871;SDS011;4472;52.092;9.820;2023-05-10T07:04:22;4.20;;;3.90;;
8871;SDS011;4472;52.092;9.820;2023-05-10T07:07:09;3.57;;;3.30;;
8871;SDS011;4472;52.092;9.820;2023-05-10T07:09:57;5.53;;;3.53;;
8871;SDS011;4472;52.092;9.820;2023-05-10T07:12:44;4.07;;;3.67;;
8871;SDS011;4472;52.092;9.820;2023-05-10T07:15:32;3.83;;;3.53;;
8871;SDS011;4472;52.092;9.820;2023-05-10T07:18:19;10.03;;;4.13;;
8871;SDS011;4472;52.092;9.820;2023-05-10T07:21:06;5.33;;;3.90;;
8871;SDS011;4472;52.092;9.820;2023-05-10T07:23:54;4.97;;;4.57;;
8871;SDS011;4472;52.092;9.820;2023-05-10T07:26:42;5.00;;;4.50;;
8871;SDS011;4472;52.092;9.820;2023-05-10T07:29:29;4.73;;;4.33;;
8871;SDS011;4472;52.092;9.820;2023-05-10T07:32:19;5.07;;;4.67;;
8871;SDS011;4472;52.092;9.820;2023-05-10T07:35:07;5.30;;;4.83;;
8871;SDS011;4472;52.092;9.820;2023-05-10T07:37:54;4.50;;;4.10;;
8871;SDS011;4472;52.092;9.820;2023-05-10T07:40:41;5.43;;;4.93;;
8871;SDS011;4472;52.092;9.820;2023-05-10T07:43:30;5.03;;;4.60;;
8871;SDS011;4472;52.092;9.820;2023-05-10T07:46:17;5.20;;;4.70;;
8871;SDS011;4472;52.092;9.820;2023-05-10T07:49:04;4.87;;;3.87;;
8871;SDS011;4472;52.092;9.820;2023-05-10T07:51:51;3.60;;;3.30;;
8871;SDS011;4472;52.092;9.820;2023-05-10T07:54:39;4.13;;;3.73;;
8871;SDS011;4472;52.092;9.820;2023-05-10T07:57:26;3.70;;;3.40;;
8871;SDS011;4472;52.092;9.820;2023-05-10T08:00:14;3.87;;;3.10;;
8871;SDS011;4472;52.092;9.820;2023-05-10T08:03:04;4.13;;;3.23;;
8871;SDS011;4472;52.092;9.820;2023-05-10T08:05:51;3.33;;;3.00;;
8871;SDS011;4472;52.092;9.820;2023-05-10T08:08:38;2.80;;;2.53;;
8871;SDS011;4472;52.092;9.820;2023-05-10T08:11:25;2.63;;;2.00;;
8871;SDS011;4472;52.092;9.820;2023-05-10T08:14:13;2.33;;;2.10;;
8871;SDS011;4472;52.092;9.820;2023-05-10T08:17:01;2.20;;;2.10;;
8871;SDS011;4472;52.092;9.820;2023-05-10T08:19:48;2.20;;;2.10;;
8871;SDS011;4472;52.092;9.820;2023-05-10T08:22:35;2.30;;;2.00;;
8871;SDS011;4472;52.092;9.820;2023-05-10T08:25:23;2.10;;;2.00;;
8871;SDS011;4472;52.092;9.820;2023-05-10T08:28:10;1.83;;;1.73;;
8871;SDS011;4472;52.092;9.820;2023-05-10T08:30:57;1.63;;;1.53;;
8871;SDS011;4472;52.092;9.820;2023-05-10T08:33:46;1.50;;;1.50;;
8871;SDS011;4472;52.092;9.820;2023-05-10T08:36:33;1.37;;;1.27;;
8871;SDS011;4472;52.092;9.820;2023-05-10T08:39:20;1.37;;;1.37;;
8871;SDS011;4472;52.092;9.820;2023-05-10T08:42:08;1.10;;;1.10;;
8871;SDS011;4472;52.092;9.820;2023-05-10T08:44:56;1.20;;;1.20;;
8871;SDS011;4472;52.092;9.820;2023-05-10T08:47:45;1.27;;;1.27;;
8871;SDS011;4472;52.092;9.820;2023-05-10T08:50:34;1.10;;;1.00;;
8871;SDS011;4472;52.092;9.820;2023-05-10T08:53:24;1.00;;;1.00;;
8871;SDS011;4472;52.092;9.820;2023-05-10T08:56:12;1.00;;;1.00;;
8871;SDS011;4472;52.092;9.820;2023-05-10T08:59:00;1.00;;;1.00;;
8871;SDS011;4472;52.092;9.820;2023-05-10T09:01:48;1.63;;;1.53;;
8871;SDS011;4472;52.092;9.820;2023-05-10T09:04:36;1.20;;;1.20;;
8871;SDS011;4472;52.092;9.820;2023-05-10T09:07:25;1.53;;;1.10;;
8871;SDS011;4472;52.092;9.820;2023-05-10T09:10:13;0.80;;;0.80;;
8871;SDS011;4472;52.092;9.820;2023-05-10T09:13:01;1.00;;;1.00;;
8871;SDS011;4472;52.092;9.820;2023-05-10T09:15:50;1.10;;;1.00;;
8871;SDS011;4472;52.092;9.820;2023-05-10T09:18:38;1.93;;;1.33;;
8871;SDS011;4472;52.092;9.820;2023-05-10T09:21:25;1.07;;;1.07;;
8871;SDS011;4472;52.092;9.820;2023-05-10T09:24:14;1.10;;;1.10;;
8871;SDS011;4472;52.092;9.820;2023-05-10T09:27:01;1.30;;;1.20;;
8871;SDS011;4472;52.092;9.820;2023-05-10T09:29:48;1.13;;;1.13;;
8871;SDS011;4472;52.092;9.820;2023-05-10T09:32:40;1.30;;;1.30;;
8871;SDS011;4472;52.092;9.820;2023-05-10T09:35:29;1.37;;;1.37;;
8871;SDS011;4472;52.092;9.820;2023-05-10T09:38:17;1.30;;;1.30;;
8871;SDS011;4472;52.092;9.820;2023-05-10T09:41:14;1.63;;;1.40;;
8871;SDS011;4472;52.092;9.820;2023-05-10T09:44:03;1.50;;;1.40;;
8871;SDS011;4472;52.092;9.820;2023-05-10T09:46:50;1.57;;;1.47;;
8871;SDS011;4472;52.092;9.820;2023-05-10T09:49:38;1.70;;;1.60;;
8871;SDS011;4472;52.092;9.820;2023-05-10T09:52:25;1.53;;;1.43;;
8871;SDS011;4472;52.092;9.820;2023-05-10T09:55:13;2.03;;;1.93;;
8871;SDS011;4472;52.092;9.820;2023-05-10T09:58:01;1.90;;;1.70;;
8871;SDS011;4472;52.092;9.820;2023-05-10T10:00:49;1.93;;;1.77;;
8871;SDS011;4472;52.092;9.820;2023-05-10T10:03:41;2.10;;;1.90;;
8871;SDS011;4472;52.092;9.820;2023-05-10T10:06:28;2.30;;;2.00;;
8871;SDS011;4472;52.092;9.820;2023-05-10T10:09:16;2.00;;;1.90;;
8871;SDS011;4472;52.092;9.820;2023-05-10T10:12:04;3.77;;;1.80;;
8871;SDS011;4472;52.092;9.820;2023-05-10T10:14:53;1.80;;;1.70;;
8871;SDS011;4472;52.092;9.820;2023-05-10T10:17:40;2.03;;;1.80;;
8871;SDS011;4472;52.092;9.820;2023-05-10T10:20:28;2.10;;;1.90;;
8871;SDS011;4472;52.092;9.820;2023-05-10T10:23:15;2.00;;;1.90;;
8871;SDS011;4472;52.092;9.820;2023-05-10T10:26:03;2.03;;;1.83;;
8871;SDS011;4472;52.092;9.820;2023-05-10T10:28:51;2.83;;;2.17;;
8871;SDS011;4472;52.092;9.820;2023-05-10T10:31:47;2.33;;;1.93;;
8871;SDS011;4472;52.092;9.820;2023-05-10T10:34:37;1.93;;;1.83;;
8871;SDS011;4472;52.092;9.820;2023-05-10T10:37:40;2.80;;;2.60;;
8871;SDS011;4472;52.092;9.820;2023-05-10T10:40:29;2.57;;;2.30;;
8871;SDS011;4472;52.092;9.820;2023-05-10T10:43:22;3.90;;;2.10;;
8871;SDS011;4472;52.092;9.820;2023-05-10T10:46:11;2.67;;;2.07;;
8871;SDS011;4472;52.092;9.820;2023-05-10T10:49:09;2.23;;;2.00;;
8871;SDS011;4472;52.092;9.820;2023-05-10T10:55:18;2.60;;;2.40;;
8871;SDS011;4472;52.092;9.820;2023-05-10T10:58:07;2.30;;;2.10;;
8871;SDS011;4472;52.092;9.820;2023-05-10T11:07:17;2.13;;;2.00;;
8871;SDS011;4472;52.092;9.820;2023-05-10T11:10:05;2.00;;;1.90;;
8871;SDS011;4472;52.092;9.820;2023-05-10T11:12:53;3.23;;;2.07;;
8871;SDS011;4472;52.092;9.820;2023-05-10T11:15:52;2.60;;;1.90;;
8871;SDS011;4472;52.092;9.820;2023-05-10T11:18:51;2.27;;;2.00;;
8871;SDS011;4472;52.092;9.820;2023-05-10T11:21:45;2.10;;;2.00;;
8871;SDS011;4472;52.092;9.820;2023-05-10T11:24:34;3.60;;;1.83;;
8871;SDS011;4472;52.092;9.820;2023-05-10T11:27:21;2.90;;;2.00;;
8871;SDS011;4472;52.092;9.820;2023-05-10T11:30:09;3.53;;;2.17;;
8871;SDS011;4472;52.092;9.820;2023-05-10T11:32:57;4.43;;;1.80;;
8871;SDS011;4472;52.092;9.820;2023-05-10T11:35:44;3.77;;;1.90;;
8871;SDS011;4472;52.092;9.820;2023-05-10T11:38:32;2.37;;;2.17;;
8871;SDS011;4472;52.092;9.820;2023-05-10T11:41:21;1.73;;;1.63;;
8871;SDS011;4472;52.092;9.820;2023-05-10T11:44:09;3.07;;;2.10;;
8871;SDS011;4472;52.092;9.820;2023-05-10T11:46:57;2.00;;;1.87;;
8871;SDS011;4472;52.092;9.820;2023-05-10T11:49:45;2.07;;;1.90;;
8871;SDS011;4472;52.092;9.820;2023-05-10T11:52:35;2.53;;;2.00;;
8871;SDS011;4472;52.092;9.820;2023-05-10T11:55:22;3.30;;;2.20;;
8871;SDS011;4472;52.092;9.820;2023-05-10T11:58:11;2.50;;;2.00;;
8871;SDS011;4472;52.092;9.820;2023-05-10T12:00:59;3.17;;;2.40;;
8871;SDS011;4472;52.092;9.820;2023-05-10T12:03:46;2.63;;;2.37;;
8871;SDS011;4472;52.092;9.820;2023-05-10T12:06:36;3.20;;;2.60;;
8871;SDS011;4472;52.092;9.820;2023-05-10T12:09:26;5.00;;;2.80;;
8871;SDS011;4472;52.092;9.820;2023-05-10T12:12:15;3.10;;;2.80;;
8871;SDS011;4472;52.092;9.820;2023-05-10T12:15:05;5.10;;;3.10;;
8871;SDS011;4472;52.092;9.820;2023-05-10T12:17:56;7.20;;;3.80;;
8871;SDS011;4472;52.092;9.820;2023-05-10T12:20:43;6.60;;;3.90;;
8871;SDS011;4472;52.092;9.820;2023-05-10T12:23:30;5.10;;;3.17;;
8871;SDS011;4472;52.092;9.820;2023-05-10T12:26:18;2.70;;;2.50;;
8871;SDS011;4472;52.092;9.820;2023-05-10T12:29:11;3.93;;;2.50;;
8871;SDS011;4472;52.092;9.820;2023-05-10T12:32:00;3.27;;;2.80;;
8871;SDS011;4472;52.092;9.820;2023-05-10T12:34:48;3.87;;;3.00;;
8871;SDS011;4472;52.092;9.820;2023-05-10T12:37:35;4.13;;;3.00;;
8871;SDS011;4472;52.092;9.820;2023-05-10T12:40:24;3.03;;;2.73;;
8871;SDS011;4472;52.092;9.820;2023-05-10T12:43:11;2.60;;;2.40;;
8871;SDS011;4472;52.092;9.820;2023-05-10T12:45:58;2.50;;;2.30;;
8871;SDS011;4472;52.092;9.820;2023-05-10T12:48:51;3.33;;;2.90;;
8871;SDS011;4472;52.092;9.820;2023-05-10T12:51:40;3.97;;;2.57;;
8871;SDS011;4472;52.092;9.820;2023-05-10T12:54:27;2.80;;;2.60;;
8871;SDS011;4472;52.092;9.820;2023-05-10T12:57:14;3.10;;;2.80;;
8871;SDS011;4472;52.092;9.820;2023-05-10T13:00:02;3.27;;;2.70;;
8871;SDS011;4472;52.092;9.820;2023-05-10T13:02:50;3.43;;;2.70;;
8871;SDS011;4472;52.092;9.820;2023-05-10T13:05:39;2.63;;;2.53;;
8871;SDS011;4472;52.092;9.820;2023-05-10T13:08:26;2.83;;;2.63;;
8871;SDS011;4472;52.092;9.820;2023-05-10T13:11:18;3.07;;;2.80;;
8871;SDS011;4472;52.092;9.820;2023-05-10T13:14:06;2.83;;;2.60;;
8871;SDS011;4472;52.092;9.820;2023-05-10T13:16:54;3.20;;;2.70;;
8871;SDS011;4472;52.092;9.820;2023-05-10T13:19:41;3.50;;;2.93;;
8871;SDS011;4472;52.092;9.820;2023-05-10T13:22:29;3.83;;;2.80;;
8871;SDS011;4472;52.092;9.820;2023-05-10T13:25:16;3.00;;;2.80;;
8871;SDS011;4472;52.092;9.820;2023-05-10T13:28:04;3.47;;;3.17;;
8871;SDS011;4472;52.092;9.820;2023-05-10T13:30:51;4.80;;;3.40;;
8871;SDS011;4472;52.092;9.820;2023-05-10T13:33:38;3.23;;;2.97;;
8871;SDS011;4472;52.092;9.820;2023-05-10T13:36:25;3.40;;;3.10;;
8871;SDS011;4472;52.092;9.820;2023-05-10T13:39:14;3.20;;;2.90;;
8871;SDS011;4472;52.092;9.820;2023-05-10T13:42:01;3.20;;;3.00;;
8871;SDS011;4472;52.092;9.820;2023-05-10T13:44:48;3.40;;;3.10;;
8871;SDS011;4472;52.092;9.820;2023-05-10T13:47:35;3.50;;;3.07;;
8871;SDS011;4472;52.092;9.820;2023-05-10T13:50:22;3.53;;;3.33;;
8871;SDS011;4472;52.092;9.820;2023-05-10T13:53:09;4.67;;;3.30;;
8871;SDS011;4472;52.092;9.820;2023-05-10T13:55:59;3.80;;;3.30;;
8871;SDS011;4472;52.092;9.820;2023-05-10T13:58:47;3.60;;;3.27;;
8871;SDS011;4472;52.092;9.820;2023-05-10T14:01:34;3.90;;;3.37;;
8871;SDS011;4472;52.092;9.820;2023-05-10T14:04:21;5.43;;;3.67;;
8871;SDS011;4472;52.092;9.820;2023-05-10T14:07:08;4.87;;;3.47;;
8871;SDS011;4472;52.092;9.820;2023-05-10T14:09:55;4.23;;;3.23;;
8871;SDS011;4472;52.092;9.820;2023-05-10T14:12:44;4.07;;;3.67;;
8871;SDS011;4472;52.092;9.820;2023-05-10T14:15:31;3.80;;;3.40;;
8871;SDS011;4472;52.092;9.820;2023-05-10T14:18:18;3.43;;;2.57;;
8871;SDS011;4472;52.092;9.820;2023-05-10T14:21:05;2.47;;;2.27;;
8871;SDS011;4472;52.092;9.820;2023-05-10T14:23:52;4.20;;;2.90;;
8871;SDS011;4472;52.092;9.820;2023-05-10T14:26:40;3.27;;;2.67;;
8871;SDS011;4472;52.092;9.820;2023-05-10T14:29:29;3.00;;;2.80;;
8871;SDS011;4472;52.092;9.820;2023-05-10T14:32:16;4.90;;;3.17;;
8871;SDS011;4472;52.092;9.820;2023-05-10T14:35:03;4.53;;;3.10;;
8871;SDS011;4472;52.092;9.820;2023-05-10T14:37:52;3.70;;;3.40;;
8871;SDS011;4472;52.092;9.820;2023-05-10T14:40:40;3.60;;;3.30;;
8871;SDS011;4472;52.092;9.820;2023-05-10T14:43:28;5.60;;;3.70;;
8871;SDS011;4472;52.092;9.820;2023-05-10T14:46:17;4.47;;;3.20;;
8871;SDS011;4472;52.092;9.820;2023-05-10T14:49:05;3.30;;;3.00;;
8871;SDS011;4472;52.092;9.820;2023-05-10T14:51:52;3.30;;;3.00;;
8871;SDS011;4472;52.092;9.820;2023-05-10T14:54:39;4.87;;;3.50;;
8871;SDS011;4472;52.092;9.820;2023-05-10T14:57:27;5.40;;;3.53;;
8871;SDS011;4472;52.092;9.820;2023-05-10T15:00:15;4.60;;;4.20;;
8871;SDS011;4472;52.092;9.820;2023-05-10T15:03:05;3.40;;;3.10;;
8871;SDS011;4472;52.092;9.820;2023-05-10T15:05:53;3.27;;;3.00;;
8871;SDS011;4472;52.092;9.820;2023-05-10T15:08:41;3.50;;;3.20;;
8871;SDS011;4472;52.092;9.820;2023-05-10T15:11:28;4.60;;;3.37;;
8871;SDS011;4472;52.092;9.820;2023-05-10T15:14:16;3.77;;;3.03;;
8871;SDS011;4472;52.092;9.820;2023-05-10T15:17:05;3.70;;;3.40;;
8871;SDS011;4472;52.092;9.820;2023-05-10T15:19:54;4.40;;;3.17;;
8871;SDS011;4472;52.092;9.820;2023-05-10T15:22:42;5.67;;;3.90;;
8871;SDS011;4472;52.092;9.820;2023-05-10T15:25:29;6.47;;;3.50;;
8871;SDS011;4472;52.092;9.820;2023-05-10T15:28:16;5.17;;;4.23;;
8871;SDS011;4472;52.092;9.820;2023-05-10T15:31:03;6.87;;;4.10;;
8871;SDS011;4472;52.092;9.820;2023-05-10T15:33:50;9.37;;;6.67;;
8871;SDS011;4472;52.092;9.820;2023-05-10T15:36:39;9.97;;;8.67;;
8871;SDS011;4472;52.092;9.820;2023-05-10T15:39:26;8.23;;;7.13;;
8871;SDS011;4472;52.092;9.820;2023-05-10T15:42:13;10.43;;;5.33;;
8871;SDS011;4472;52.092;9.820;2023-05-10T15:45:01;4.77;;;4.20;;
8871;SDS011;4472;52.092;9.820;2023-05-10T15:47:48;4.37;;;3.93;;
8871;SDS011;4472;52.092;9.820;2023-05-10T15:50:35;4.23;;;3.60;;
8871;SDS011;4472;52.092;9.820;2023-05-10T15:53:24;2.90;;;2.70;;
8871;SDS011;4472;52.092;9.820;2023-05-10T15:56:11;2.40;;;2.20;;
8871;SDS011;4472;52.092;9.820;2023-05-10T15:58:58;2.63;;;2.30;;
8871;SDS011;4472;52.092;9.820;2023-05-10T16:01:45;2.30;;;2.10;;
8871;SDS011;4472;52.092;9.820;2023-05-10T16:04:33;3.00;;;2.17;;
8871;SDS011;4472;52.092;9.820;2023-05-10T16:07:20;3.23;;;2.60;;
8871;SDS011;4472;52.092;9.820;2023-05-10T16:10:09;3.30;;;2.70;;
8871;SDS011;4472;52.092;9.820;2023-05-10T16:12:57;3.10;;;2.80;;
8871;SDS011;4472;52.092;9.820;2023-05-10T16:15:44;4.50;;;3.30;;
8871;SDS011;4472;52.092;9.820;2023-05-10T16:18:31;5.00;;;3.80;;
8871;SDS011;4472;52.092;9.820;2023-05-10T16:21:19;3.77;;;3.30;;
8871;SDS011;4472;52.092;9.820;2023-05-10T16:24:06;3.70;;;3.40;;
8871;SDS011;4472;52.092;9.820;2023-05-10T16:26:55;3.67;;;3.27;;
8871;SDS011;4472;52.092;9.820;2023-05-10T16:29:42;4.37;;;3.80;;
8871;SDS011;4472;52.092;9.820;2023-05-10T16:32:29;4.07;;;3.67;;
8871;SDS011;4472;52.092;9.820;2023-05-10T16:35:16;4.27;;;3.87;;
8871;SDS011;4472;52.092;9.820;2023-05-10T16:38:03;4.70;;;4.23;;
8871;SDS011;4472;52.092;9.820;2023-05-10T16:40:51;3.97;;;3.50;;
8871;SDS011;4472;52.092;9.820;2023-05-10T16:43:39;4.87;;;3.40;;
8871;SDS011;4472;52.092;9.820;2023-05-10T16:46:26;3.67;;;3.37;;
8871;SDS011;4472;52.092;9.820;2023-05-10T16:49:13;3.73;;;3.43;;
8871;SDS011;4472;52.092;9.820;2023-05-10T16:52:01;6.57;;;3.57;;
8871;SDS011;4472;52.092;9.820;2023-05-10T16:54:48;4.70;;;3.90;;
8871;SDS011;4472;52.092;9.820;2023-05-10T16:57:35;4.10;;;3.70;;
8871;SDS011;4472;52.092;9.820;2023-05-10T17:00:23;4.20;;;3.80;;
8871;SDS011;4472;52.092;9.820;2023-05-10T17:03:11;3.83;;;3.40;;
8871;SDS011;4472;52.092;9.820;2023-05-10T17:05:58;3.63;;;3.00;;
8871;SDS011;4472;52.092;9.820;2023-05-10T17:08:45;3.20;;;2.90;;
8871;SDS011;4472;52.092;9.820;2023-05-10T17:11:32;2.83;;;2.63;;
8871;SDS011;4472;52.092;9.820;2023-05-10T17:14:19;3.10;;;2.80;;
8871;SDS011;4472;52.092;9.820;2023-05-10T17:17:08;6.60;;;3.37;;
8871;SDS011;4472;52.092;9.820;2023-05-10T17:19:55;7.60;;;6.23;;
8871;SDS011;4472;52.092;9.820;2023-05-10T17:22:42;6.23;;;5.00;;
8871;SDS011;4472;52.092;9.820;2023-05-10T17:25:30;8.27;;;5.43;;
8871;SDS011;4472;52.092;9.820;2023-05-10T17:28:17;8.23;;;5.50;;
8871;SDS011;4472;52.092;9.820;2023-05-10T17:31:04;11.13;;;7.33;;
8871;SDS011;4472;52.092;9.820;2023-05-10T17:33:52;14.93;;;7.80;;
8871;SDS011;4472;52.092;9.820;2023-05-10T17:36:39;15.67;;;10.47;;
8871;SDS011;4472;52.092;9.820;2023-05-10T17:39:27;13.10;;;8.23;;